createdAt,value
2022-09-24T00:00:00.704Z,87.49
2022-09-24T00:01:00.700Z,87.49
2022-09-24T00:02:00.715Z,86.98
2022-09-24T00:03:00.708Z,87.38
2022-09-24T00:04:00.835Z,87.49
2022-09-24T00:05:00.633Z,87.99
2022-09-24T00:06:00.659Z,87.59
2022-09-24T00:07:00.618Z,87.69
2022-09-24T00:08:00.600Z,87.49
2022-09-24T00:09:00.596Z,87.59
2022-09-24T00:10:00.592Z,87.49
2022-09-24T00:11:00.572Z,88.20
2022-09-24T00:12:00.600Z,88.13
2022-09-24T00:13:00.548Z,87.89
2022-09-24T00:14:00.718Z,87.59
2022-09-24T00:15:00.524Z,87.89
2022-09-24T00:16:00.518Z,87.59
2022-09-24T00:17:00.537Z,87.89
2022-09-24T00:18:00.486Z,87.99
2022-09-24T00:19:00.486Z,88.13
2022-09-24T00:20:00.471Z,88.24
2022-09-24T00:21:00.458Z,88.20
2022-09-24T00:22:00.450Z,87.99
2022-09-24T00:23:00.461Z,87.93
2022-09-24T00:24:00.432Z,88.44
2022-09-24T00:25:00.406Z,88.40
2022-09-24T00:26:00.402Z,88.04
2022-09-24T00:27:00.396Z,88.44
2022-09-24T00:28:00.374Z,88.34
2022-09-24T00:29:00.385Z,88.13
2022-09-24T00:30:00.354Z,88.75
2022-09-24T00:31:00.432Z,88.65
2022-09-24T00:32:00.329Z,88.24
2022-09-24T00:33:00.340Z,88.34
2022-09-24T00:34:00.426Z,88.34
2022-09-24T00:35:00.303Z,88.65
2022-09-24T00:36:00.291Z,88.85
2022-09-24T00:37:00.271Z,90.01
2022-09-24T00:38:00.267Z,88.48
2022-09-24T00:39:00.262Z,88.34
2022-09-24T00:40:00.266Z,89.20
2022-09-24T00:41:00.228Z,89.26
2022-09-24T00:42:00.219Z,88.95
2022-09-24T00:43:00.203Z,88.54
2022-09-24T00:44:00.209Z,89.26
2022-09-24T00:45:00.194Z,88.59
2022-09-24T00:46:00.196Z,89.26
2022-09-24T00:47:00.260Z,89.09
2022-09-24T00:48:00.147Z,88.89
2022-09-24T00:49:00.154Z,89.30
2022-09-24T00:50:00.132Z,89.20
2022-09-24T00:51:00.119Z,90.01
2022-09-24T00:52:00.138Z,88.65
2022-09-24T00:53:00.090Z,88.69
2022-09-24T00:54:00.089Z,89.09
2022-09-24T00:55:00.074Z,88.79
2022-09-24T00:56:00.087Z,88.44
2022-09-24T00:57:00.048Z,88.89
2022-09-24T00:58:00.056Z,89.20
2022-09-24T00:59:00.034Z,89.20
2022-09-24T01:00:00.015Z,89.20
2022-09-24T01:01:00.068Z,89.00
2022-09-24T01:02:00.033Z,88.79
2022-09-24T01:02:59.980Z,88.79
2022-09-24T01:03:59.992Z,88.89
2022-09-24T01:04:59.987Z,89.00
2022-09-24T01:05:59.952Z,88.73
2022-09-24T01:06:59.945Z,89.00
2022-09-24T01:07:59.933Z,88.89
2022-09-24T01:08:59.933Z,89.30
2022-09-24T01:09:59.908Z,89.14
2022-09-24T01:10:59.895Z,89.14
2022-09-24T01:11:59.885Z,89.40
2022-09-24T01:12:59.875Z,89.50
2022-09-24T01:13:59.862Z,89.70
2022-09-24T01:14:59.865Z,90.16
2022-09-24T01:15:59.871Z,89.30
2022-09-24T01:16:59.820Z,90.46
2022-09-24T01:17:59.815Z,89.50
2022-09-24T01:18:59.797Z,89.70
2022-09-24T01:19:59.795Z,89.40
2022-09-24T01:20:59.866Z,89.54
2022-09-24T01:21:59.764Z,89.40
2022-09-24T01:22:59.760Z,89.50
2022-09-24T01:23:59.750Z,89.91
2022-09-24T01:24:59.733Z,90.05
2022-09-24T01:25:59.720Z,89.50
2022-09-24T01:26:59.721Z,89.70
2022-09-24T01:27:59.701Z,89.95
2022-09-24T01:28:59.685Z,90.05
2022-09-24T01:29:59.672Z,89.64
2022-09-24T01:30:59.800Z,90.16
2022-09-24T01:31:59.680Z,89.85
2022-09-24T01:32:59.641Z,89.75
2022-09-24T01:33:59.653Z,90.25
2022-09-24T01:34:59.623Z,89.54
2022-09-24T01:35:59.613Z,90.05
2022-09-24T01:36:59.621Z,89.95
2022-09-24T01:37:59.594Z,89.95
2022-09-24T01:38:59.582Z,89.75
2022-09-24T01:39:59.568Z,90.16
2022-09-24T01:40:59.549Z,90.05
2022-09-24T01:41:59.543Z,89.95
2022-09-24T01:42:59.560Z,90.05
2022-09-24T01:43:59.524Z,90.25
2022-09-24T01:44:59.510Z,90.46
2022-09-24T01:45:59.504Z,90.56
2022-09-24T01:46:59.537Z,90.56
2022-09-24T01:47:59.470Z,90.50
2022-09-24T01:48:59.488Z,90.20
2022-09-24T01:49:59.447Z,90.16
2022-09-24T01:50:59.444Z,90.36
2022-09-24T01:51:59.425Z,89.95
2022-09-24T01:52:59.443Z,90.05
2022-09-24T01:53:59.410Z,90.16
2022-09-24T01:54:59.415Z,90.40
2022-09-24T01:55:59.380Z,90.16
2022-09-24T01:56:59.376Z,89.54
2022-09-24T01:57:59.364Z,89.95
2022-09-24T01:58:59.349Z,90.16
2022-09-24T01:59:59.351Z,89.44
2022-09-24T02:00:59.431Z,90.16
2022-09-24T02:01:59.404Z,89.75
2022-09-24T02:02:59.312Z,90.16
2022-09-24T02:03:59.299Z,90.46
2022-09-24T02:04:59.302Z,90.25
2022-09-24T02:05:59.268Z,90.16
2022-09-24T02:06:59.258Z,90.46
2022-09-24T02:07:59.253Z,90.36
2022-09-24T02:08:59.261Z,90.16
2022-09-24T02:09:59.254Z,90.46
2022-09-24T02:10:59.220Z,90.86
2022-09-24T02:11:59.198Z,90.56
2022-09-24T02:12:59.197Z,90.25
2022-09-24T02:13:59.209Z,89.85
2022-09-24T02:14:59.180Z,90.46
2022-09-24T02:15:59.207Z,90.86
2022-09-24T02:16:59.145Z,90.97
2022-09-24T02:17:59.131Z,90.77
2022-09-24T02:18:59.129Z,90.97
2022-09-24T02:19:59.115Z,90.25
2022-09-24T02:20:59.115Z,90.66
2022-09-24T02:21:59.087Z,90.97
2022-09-24T02:22:59.077Z,91.17
2022-09-24T02:23:59.063Z,90.97
2022-09-24T02:24:59.085Z,90.77
2022-09-24T02:25:59.043Z,90.77
2022-09-24T02:26:59.042Z,90.77
2022-09-24T02:27:59.030Z,90.77
2022-09-24T02:28:59.016Z,91.11
2022-09-24T02:29:59.000Z,91.22
2022-09-24T02:30:59.082Z,90.70
2022-09-24T02:31:59.007Z,90.60
2022-09-24T02:32:58.964Z,91.22
2022-09-24T02:33:58.961Z,91.22
2022-09-24T02:34:58.940Z,90.91
2022-09-24T02:35:58.936Z,91.22
2022-09-24T02:36:58.920Z,91.22
2022-09-24T02:38:02.767Z,91.22
2022-09-24T02:38:59.895Z,91.11
2022-09-24T02:39:58.885Z,91.62
2022-09-24T02:40:58.900Z,91.83
2022-09-24T02:41:58.860Z,91.83
2022-09-24T02:42:58.873Z,91.93
2022-09-24T02:43:58.840Z,91.77
2022-09-24T02:44:58.833Z,91.83
2022-09-24T02:45:58.830Z,91.31
2022-09-24T02:46:58.937Z,91.56
2022-09-24T02:47:58.820Z,91.66
2022-09-24T02:48:58.789Z,91.72
2022-09-24T02:49:58.772Z,91.72
2022-09-24T02:50:58.760Z,91.97
2022-09-24T02:51:58.747Z,92.07
2022-09-24T02:52:58.739Z,91.46
2022-09-24T02:53:58.746Z,91.87
2022-09-24T02:54:58.724Z,92.03
2022-09-24T02:55:58.715Z,91.11
2022-09-24T02:56:58.716Z,91.66
2022-09-24T02:57:58.684Z,90.95
2022-09-24T02:58:58.689Z,91.16
2022-09-24T02:59:58.658Z,90.95
2022-09-24T03:00:58.653Z,91.56
2022-09-24T03:01:58.777Z,91.66
2022-09-24T03:02:58.710Z,91.87
2022-09-24T03:03:58.629Z,92.07
2022-09-24T03:04:58.604Z,91.97
2022-09-24T03:05:58.598Z,91.77
2022-09-24T03:06:58.599Z,91.91
2022-09-24T03:07:58.575Z,92.07
2022-09-24T03:08:58.582Z,92.07
2022-09-24T03:09:58.567Z,91.56
2022-09-24T03:10:58.543Z,91.66
2022-09-24T03:11:58.528Z,92.07
2022-09-24T03:12:58.619Z,92.18
2022-09-24T03:13:58.513Z,92.18
2022-09-24T03:14:58.507Z,91.97
2022-09-24T03:15:58.551Z,92.18
2022-09-24T03:16:58.466Z,92.18
2022-09-24T03:17:58.456Z,92.07
2022-09-24T03:18:58.444Z,92.18
2022-09-24T03:19:58.435Z,92.32
2022-09-24T03:20:58.435Z,92.22
2022-09-24T03:21:58.412Z,91.56
2022-09-24T03:22:58.406Z,92.38
2022-09-24T03:23:58.393Z,92.38
2022-09-24T03:24:58.385Z,92.38
2022-09-24T03:25:58.937Z,91.97
2022-09-24T03:26:58.356Z,92.18
2022-09-24T03:27:58.353Z,92.38
2022-09-24T03:28:58.436Z,92.07
2022-09-24T03:29:58.321Z,92.22
2022-09-24T03:30:58.354Z,92.18
2022-09-24T03:31:58.333Z,92.18
2022-09-24T03:32:58.303Z,92.22
2022-09-24T03:33:58.289Z,92.22
2022-09-24T03:34:58.264Z,92.52
2022-09-24T03:35:58.259Z,92.38
2022-09-24T03:36:58.255Z,93.24
2022-09-24T03:37:58.238Z,93.24
2022-09-24T03:38:58.223Z,93.24
2022-09-24T03:39:58.215Z,93.03
2022-09-24T03:40:58.335Z,92.72
2022-09-24T03:41:58.198Z,93.03
2022-09-24T03:42:58.174Z,92.27
2022-09-24T03:43:58.163Z,92.72
2022-09-24T03:44:58.184Z,92.48
2022-09-24T03:45:58.140Z,93.03
2022-09-24T03:46:58.144Z,92.83
2022-09-24T03:47:58.116Z,92.63
2022-09-24T03:48:58.105Z,92.72
2022-09-24T03:49:58.098Z,92.52
2022-09-24T03:50:58.092Z,92.83
2022-09-24T03:51:58.100Z,93.13
2022-09-24T03:52:58.072Z,93.03
2022-09-24T03:53:58.053Z,93.44
2022-09-24T03:54:58.040Z,93.24
2022-09-24T03:55:58.027Z,93.03
2022-09-24T03:56:58.018Z,93.24
2022-09-24T03:57:58.019Z,92.72
2022-09-24T03:58:57.997Z,93.18
2022-09-24T03:59:57.984Z,92.93
2022-09-24T04:00:58.000Z,92.83
2022-09-24T04:01:58.054Z,93.18
2022-09-24T04:02:58.027Z,92.46
2022-09-24T04:03:57.948Z,91.85
2022-09-24T04:04:57.928Z,92.36
2022-09-24T04:05:57.925Z,92.16
2022-09-24T04:06:57.904Z,92.11
2022-09-24T04:07:57.914Z,92.16
2022-09-24T04:08:57.911Z,91.75
2022-09-24T04:09:58.406Z,92.05
2022-09-24T04:10:57.867Z,91.96
2022-09-24T04:11:57.853Z,91.75
2022-09-24T04:12:57.838Z,91.65
2022-09-24T04:13:57.845Z,92.05
2022-09-24T04:14:57.824Z,92.16
2022-09-24T04:15:57.859Z,91.96
2022-09-24T04:16:57.822Z,91.96
2022-09-24T04:17:57.783Z,92.05
2022-09-24T04:18:57.804Z,91.85
2022-09-24T04:19:57.759Z,92.05
2022-09-24T04:20:57.747Z,91.14
2022-09-24T04:21:57.732Z,91.14
2022-09-24T04:22:57.723Z,91.14
2022-09-24T04:23:57.718Z,91.35
2022-09-24T04:24:57.725Z,91.59
2022-09-24T04:25:57.691Z,91.69
2022-09-24T04:26:57.680Z,91.85
2022-09-24T04:27:57.668Z,92.05
2022-09-24T04:28:57.666Z,91.85
2022-09-24T04:29:57.667Z,91.96
2022-09-24T04:30:57.765Z,92.05
2022-09-24T04:31:57.623Z,91.65
2022-09-24T04:32:57.646Z,91.75
2022-09-24T04:33:57.601Z,91.55
2022-09-24T04:34:57.609Z,91.65
2022-09-24T04:35:57.582Z,92.05
2022-09-24T04:36:57.576Z,91.79
2022-09-24T04:37:57.575Z,91.85
2022-09-24T04:38:57.549Z,91.59
2022-09-24T04:39:57.561Z,91.39
2022-09-24T04:40:57.618Z,92.05
2022-09-24T04:41:57.538Z,91.28
2022-09-24T04:42:57.500Z,92.00
2022-09-24T04:43:57.492Z,91.39
2022-09-24T04:44:57.479Z,92.10
2022-09-24T04:45:57.518Z,92.00
2022-09-24T04:46:57.581Z,92.00
2022-09-24T04:47:57.620Z,91.89
2022-09-24T04:48:57.462Z,91.75
2022-09-24T04:49:57.428Z,91.39
2022-09-24T04:50:57.423Z,92.00
2022-09-24T04:51:57.399Z,91.89
2022-09-24T04:52:57.399Z,92.10
2022-09-24T04:53:57.376Z,91.49
2022-09-24T04:54:57.372Z,91.49
2022-09-24T04:55:57.377Z,92.00
2022-09-24T04:56:57.353Z,92.00
2022-09-24T04:57:57.338Z,92.10
2022-09-24T04:58:57.323Z,91.69
2022-09-24T04:59:57.318Z,91.89
2022-09-24T05:00:57.306Z,91.49
2022-09-24T05:01:57.434Z,92.00
2022-09-24T05:02:57.389Z,92.10
2022-09-24T05:03:57.271Z,92.00
2022-09-24T05:04:57.277Z,91.44
2022-09-24T05:05:57.248Z,91.14
2022-09-24T05:06:57.253Z,91.35
2022-09-24T05:07:57.235Z,91.59
2022-09-24T05:08:57.217Z,91.14
2022-09-24T05:09:57.196Z,91.18
2022-09-24T05:10:57.194Z,91.28
2022-09-24T05:11:57.195Z,90.88
2022-09-24T05:12:57.169Z,91.39
2022-09-24T05:13:57.152Z,91.24
2022-09-24T05:14:57.144Z,91.39
2022-09-24T05:15:57.180Z,90.98
2022-09-24T05:16:57.145Z,90.83
2022-09-24T05:17:57.116Z,91.24
2022-09-24T05:18:57.103Z,90.98
2022-09-24T05:19:57.095Z,90.94
2022-09-24T05:20:57.095Z,91.08
2022-09-24T05:21:57.065Z,91.14
2022-09-24T05:22:57.089Z,90.77
2022-09-24T05:23:57.050Z,90.42
2022-09-24T05:24:57.041Z,90.53
2022-09-24T05:25:57.038Z,91.08
2022-09-24T05:26:57.006Z,91.14
2022-09-24T05:27:57.012Z,91.28
2022-09-24T05:28:56.992Z,91.18
2022-09-24T05:29:56.985Z,91.39
2022-09-24T05:30:57.041Z,91.18
2022-09-24T05:31:56.961Z,90.98
2022-09-24T05:32:56.968Z,91.08
2022-09-24T05:33:56.936Z,91.08
2022-09-24T05:34:56.923Z,91.08
2022-09-24T05:35:56.913Z,90.98
2022-09-24T05:36:56.916Z,91.39
2022-09-24T05:37:56.892Z,91.39
2022-09-24T05:38:56.885Z,91.18
2022-09-24T05:39:56.863Z,90.88
2022-09-24T05:40:57.018Z,91.08
2022-09-24T05:41:56.841Z,90.88
2022-09-24T05:42:56.831Z,91.28
2022-09-24T05:43:56.839Z,90.98
2022-09-24T05:44:56.812Z,91.39
2022-09-24T05:45:56.801Z,90.98
2022-09-24T05:46:56.882Z,91.39
2022-09-24T05:47:56.780Z,91.18
2022-09-24T05:48:56.785Z,90.98
2022-09-24T05:49:56.751Z,91.08
2022-09-24T05:50:56.744Z,91.08
2022-09-24T05:51:56.726Z,91.39
2022-09-24T05:52:56.834Z,91.18
2022-09-24T05:53:56.743Z,91.18
2022-09-24T05:54:56.698Z,91.49
2022-09-24T05:55:56.683Z,91.28
2022-09-24T05:56:56.677Z,91.39
2022-09-24T05:57:56.672Z,91.59
2022-09-24T05:58:56.663Z,91.28
2022-09-24T05:59:56.648Z,91.08
2022-09-24T06:00:56.626Z,91.28
2022-09-24T06:01:56.659Z,91.59
2022-09-24T06:02:56.690Z,90.98
2022-09-24T06:03:56.593Z,92.10
2022-09-24T06:04:56.631Z,90.98
2022-09-24T06:05:56.569Z,91.44
2022-09-24T06:06:56.563Z,91.75
2022-09-24T06:07:56.553Z,91.28
2022-09-24T06:08:56.640Z,91.18
2022-09-24T06:09:56.551Z,91.59
2022-09-24T06:10:56.522Z,91.28
2022-09-24T06:11:56.504Z,91.79
2022-09-24T06:12:56.490Z,92.10
2022-09-24T06:13:56.485Z,91.59
2022-09-24T06:14:56.480Z,91.18
2022-09-24T06:15:56.564Z,91.35
2022-09-24T06:16:56.456Z,91.08
2022-09-24T06:17:56.437Z,91.35
2022-09-24T06:18:56.423Z,91.08
2022-09-24T06:19:56.421Z,91.39
2022-09-24T06:20:56.422Z,91.39
2022-09-24T06:21:56.397Z,91.35
2022-09-24T06:22:56.385Z,90.98
2022-09-24T06:23:56.374Z,90.94
2022-09-24T06:24:56.475Z,91.24
2022-09-24T06:25:56.362Z,91.39
2022-09-24T06:26:56.341Z,91.35
2022-09-24T06:27:56.321Z,91.08
2022-09-24T06:29:00.759Z,90.94
2022-09-24T06:29:57.302Z,91.14
2022-09-24T06:30:56.332Z,91.03
2022-09-24T06:31:56.285Z,90.42
2022-09-24T06:32:56.268Z,90.94
2022-09-24T06:33:56.254Z,91.24
2022-09-24T06:34:59.135Z,90.53
2022-09-24T06:35:56.247Z,91.03
2022-09-24T06:36:56.229Z,90.94
2022-09-24T06:37:56.220Z,91.03
2022-09-24T06:38:56.215Z,91.35
2022-09-24T06:39:56.295Z,90.89
2022-09-24T06:40:56.267Z,91.30
2022-09-24T06:41:56.164Z,91.14
2022-09-24T06:42:56.165Z,90.63
2022-09-24T06:43:56.173Z,90.42
2022-09-24T06:44:56.135Z,90.12
2022-09-24T06:45:56.121Z,90.38
2022-09-24T06:46:56.178Z,90.28
2022-09-24T06:47:56.114Z,90.48
2022-09-24T06:48:56.094Z,90.18
2022-09-24T06:49:56.076Z,90.08
2022-09-24T06:50:56.075Z,90.48
2022-09-24T06:51:56.073Z,90.44
2022-09-24T06:52:56.050Z,90.55
2022-09-24T06:53:56.036Z,90.28
2022-09-24T06:54:56.020Z,90.28
2022-09-24T06:55:56.018Z,90.38
2022-09-24T06:56:56.018Z,90.48
2022-09-24T06:57:56.008Z,90.48
2022-09-24T06:58:55.973Z,90.14
2022-09-24T06:59:55.968Z,89.94
2022-09-24T07:00:55.996Z,89.53
2022-09-24T07:01:55.980Z,89.53
2022-09-24T07:02:55.961Z,89.22
2022-09-24T07:03:55.918Z,90.03
2022-09-24T07:04:55.907Z,89.83
2022-09-24T07:05:55.906Z,89.32
2022-09-24T07:06:55.892Z,89.94
2022-09-24T07:07:55.893Z,89.22
2022-09-24T07:08:55.863Z,89.01
2022-09-24T07:09:55.858Z,88.51
2022-09-24T07:10:55.843Z,89.73
2022-09-24T07:11:55.836Z,89.73
2022-09-24T07:12:55.857Z,89.22
2022-09-24T07:13:55.816Z,88.71
2022-09-24T07:14:55.793Z,88.61
2022-09-24T07:15:55.845Z,88.40
2022-09-24T07:16:55.773Z,88.20
2022-09-24T07:17:55.769Z,88.10
2022-09-24T07:18:55.771Z,88.51
2022-09-24T07:19:55.740Z,88.40
2022-09-24T07:20:55.736Z,88.61
2022-09-24T07:21:55.715Z,88.10
2022-09-24T07:22:55.704Z,88.31
2022-09-24T07:23:58.602Z,88.00
2022-09-24T07:24:55.689Z,88.06
2022-09-24T07:25:55.677Z,88.36
2022-09-24T07:26:55.660Z,88.10
2022-09-24T07:27:55.652Z,88.26
2022-09-24T07:28:55.692Z,88.61
2022-09-24T07:29:55.626Z,88.10
2022-09-24T07:30:55.665Z,88.61
2022-09-24T07:31:55.614Z,88.26
2022-09-24T07:32:55.594Z,88.36
2022-09-24T07:33:55.601Z,87.96
2022-09-24T07:34:55.578Z,87.55
2022-09-24T07:35:55.564Z,87.90
2022-09-24T07:36:55.554Z,88.36
2022-09-24T07:37:55.543Z,87.75
2022-09-24T07:38:55.539Z,88.06
2022-09-24T07:39:55.530Z,88.36
2022-09-24T07:40:55.559Z,87.51
2022-09-24T07:41:55.492Z,87.35
2022-09-24T07:42:55.488Z,87.35
2022-09-24T07:43:55.479Z,86.69
2022-09-24T07:44:55.500Z,87.61
2022-09-24T07:45:55.448Z,87.61
2022-09-24T07:46:55.530Z,87.71
2022-09-24T07:47:55.430Z,87.00
2022-09-24T07:48:55.418Z,87.30
2022-09-24T07:49:55.424Z,87.20
2022-09-24T07:50:55.405Z,86.80
2022-09-24T07:51:55.386Z,86.29
2022-09-24T07:52:55.376Z,86.90
2022-09-24T07:53:55.366Z,87.10
2022-09-24T07:54:55.351Z,87.06
2022-09-24T07:55:55.347Z,87.37
2022-09-24T07:56:55.333Z,87.16
2022-09-24T07:57:55.326Z,86.69
2022-09-24T07:58:55.300Z,86.69
2022-09-24T07:59:55.293Z,86.55
2022-09-24T08:00:55.317Z,87.26
2022-09-24T08:01:55.339Z,87.06
2022-09-24T08:02:55.260Z,86.65
2022-09-24T08:03:55.311Z,86.96
2022-09-24T08:04:55.238Z,87.47
2022-09-24T08:05:55.247Z,86.96
2022-09-24T08:06:55.219Z,86.51
2022-09-24T08:07:55.260Z,86.35
2022-09-24T08:08:55.195Z,87.02
2022-09-24T08:09:55.176Z,86.86
2022-09-24T08:10:55.181Z,86.25
2022-09-24T08:11:55.155Z,86.10
2022-09-24T08:12:55.150Z,86.76
2022-09-24T08:13:55.139Z,86.71
2022-09-24T08:14:55.193Z,86.41
2022-09-24T08:15:55.180Z,86.21
2022-09-24T08:16:55.139Z,86.16
2022-09-24T08:17:55.090Z,85.55
2022-09-24T08:18:55.090Z,85.25
2022-09-24T08:19:55.076Z,85.25
2022-09-24T08:20:55.061Z,84.54
2022-09-24T08:21:55.064Z,84.74
2022-09-24T08:22:55.038Z,84.91
2022-09-24T08:23:55.022Z,84.50
2022-09-24T08:24:55.058Z,84.60
2022-09-24T08:25:55.001Z,84.09
2022-09-24T08:26:55.010Z,83.99
2022-09-24T08:27:54.982Z,83.38
2022-09-24T08:28:54.963Z,82.84
2022-09-24T08:29:54.957Z,82.94
2022-09-24T08:30:54.998Z,82.64
2022-09-24T08:31:54.949Z,82.70
2022-09-24T08:32:54.953Z,82.12
2022-09-24T08:33:54.916Z,82.12
2022-09-24T08:34:54.900Z,82.09
2022-09-24T08:35:54.892Z,82.29
2022-09-24T08:36:54.883Z,82.70
2022-09-24T08:37:54.896Z,82.80
2022-09-24T08:38:54.861Z,82.50
2022-09-24T08:39:54.848Z,81.58
2022-09-24T08:40:54.950Z,81.44
2022-09-24T08:41:54.837Z,81.44
2022-09-24T08:42:54.848Z,81.85
2022-09-24T08:43:54.802Z,81.44
2022-09-24T08:44:54.788Z,81.20
2022-09-24T08:45:54.780Z,81.30
2022-09-24T08:46:54.831Z,81.81
2022-09-24T08:47:54.773Z,81.26
2022-09-24T08:48:54.780Z,80.76
2022-09-24T08:49:54.727Z,81.16
2022-09-24T08:50:54.728Z,80.41
2022-09-24T08:51:54.714Z,80.45
2022-09-24T08:52:54.691Z,80.55
2022-09-24T08:53:54.706Z,79.71
2022-09-24T08:54:54.677Z,79.10
2022-09-24T08:55:54.667Z,78.89
2022-09-24T08:56:54.650Z,79.60
2022-09-24T08:57:54.648Z,79.91
2022-09-24T08:58:54.644Z,80.11
2022-09-24T08:59:54.622Z,79.46
2022-09-24T09:00:54.607Z,78.79
2022-09-24T09:01:54.811Z,79.67
2022-09-24T09:02:54.650Z,79.16
2022-09-24T09:03:54.594Z,79.26
2022-09-24T09:04:54.595Z,79.36
2022-09-24T09:05:54.560Z,79.06
2022-09-24T09:06:54.546Z,78.86
2022-09-24T09:07:54.536Z,77.61
2022-09-24T09:09:06.927Z,78.66
2022-09-24T09:09:55.511Z,78.25
2022-09-24T09:10:54.493Z,78.55
2022-09-24T09:11:54.493Z,79.20
2022-09-24T09:12:54.482Z,79.67
2022-09-24T09:13:54.483Z,79.06
2022-09-24T09:14:54.469Z,79.10
2022-09-24T09:15:54.499Z,79.20
2022-09-24T09:16:54.444Z,79.20
2022-09-24T09:17:54.426Z,79.57
2022-09-24T09:18:54.405Z,79.67
2022-09-24T09:19:54.409Z,79.26
2022-09-24T09:20:54.502Z,78.35
2022-09-24T09:21:54.383Z,78.62
2022-09-24T09:22:54.367Z,78.72
2022-09-24T09:23:54.377Z,79.22
2022-09-24T09:24:54.361Z,80.34
2022-09-24T09:25:54.338Z,80.24
2022-09-24T09:26:54.316Z,79.29
2022-09-24T09:27:54.315Z,78.64
2022-09-24T09:28:54.295Z,78.75
2022-09-24T09:29:54.302Z,78.85
2022-09-24T09:30:54.351Z,78.10
2022-09-24T09:31:56.575Z,77.19
2022-09-24T09:32:54.252Z,76.39
2022-09-24T09:33:54.239Z,76.25
2022-09-24T09:34:54.231Z,75.64
2022-09-24T09:35:54.246Z,76.75
2022-09-24T09:36:54.254Z,77.02
2022-09-24T09:37:54.203Z,76.18
2022-09-24T09:38:54.184Z,76.38
2022-09-24T09:39:54.179Z,76.04
2022-09-24T09:40:54.295Z,76.54
2022-09-24T09:41:54.150Z,75.84
2022-09-24T09:42:54.142Z,75.50
2022-09-24T09:43:54.129Z,75.20
2022-09-24T09:44:54.123Z,74.15
2022-09-24T09:45:54.119Z,74.76
2022-09-24T09:46:54.182Z,74.35
2022-09-24T09:47:54.082Z,73.65
2022-09-24T09:48:54.079Z,72.94
2022-09-24T09:49:54.061Z,73.21
2022-09-24T09:50:54.055Z,72.24
2022-09-24T09:51:54.050Z,71.94
2022-09-24T09:52:54.054Z,73.45
2022-09-24T09:53:54.016Z,73.35
2022-09-24T09:54:54.010Z,73.14
2022-09-24T09:55:53.998Z,72.71
2022-09-24T09:56:54.000Z,72.71
2022-09-24T09:57:53.982Z,72.77
2022-09-24T09:58:53.960Z,72.94
2022-09-24T09:59:53.948Z,71.83
2022-09-24T10:00:53.946Z,71.60
2022-09-24T10:01:53.989Z,71.50
2022-09-24T10:02:54.035Z,71.40
2022-09-24T10:03:53.902Z,70.56
2022-09-24T10:04:53.892Z,70.66
2022-09-24T10:05:53.880Z,69.45
2022-09-24T10:06:53.869Z,69.85
2022-09-24T10:07:53.877Z,69.76
2022-09-24T10:08:53.962Z,69.38
2022-09-24T10:09:53.844Z,69.69
2022-09-24T10:10:53.826Z,69.38
2022-09-24T10:11:53.811Z,69.38
2022-09-24T10:12:53.858Z,70.32
2022-09-24T10:13:53.799Z,70.12
2022-09-24T10:14:53.788Z,71.13
2022-09-24T10:15:53.816Z,71.23
2022-09-24T10:16:53.770Z,71.73
2022-09-24T10:17:53.763Z,71.53
2022-09-24T10:18:53.743Z,71.53
2022-09-24T10:19:53.731Z,71.63
2022-09-24T10:20:53.728Z,71.73
2022-09-24T10:21:53.710Z,71.03
2022-09-24T10:22:53.737Z,71.20
2022-09-24T10:23:53.689Z,71.40
2022-09-24T10:24:53.700Z,71.84
2022-09-24T10:25:53.667Z,71.73
2022-09-24T10:26:53.658Z,71.94
2022-09-24T10:27:53.656Z,72.74
2022-09-24T10:28:53.635Z,73.08
2022-09-24T10:29:53.614Z,73.08
2022-09-24T10:30:53.747Z,73.52
2022-09-24T10:31:53.592Z,73.62
2022-09-24T10:32:53.628Z,73.72
2022-09-24T10:33:53.579Z,73.52
2022-09-24T10:34:53.568Z,74.22
2022-09-24T10:35:53.561Z,74.66
2022-09-24T10:36:53.546Z,75.07
2022-09-24T10:37:53.538Z,75.60
2022-09-24T10:38:53.529Z,76.62
2022-09-24T10:39:53.505Z,76.38
2022-09-24T10:40:53.631Z,76.31
2022-09-24T10:41:53.488Z,76.28
2022-09-24T10:42:53.477Z,75.91
2022-09-24T10:43:53.482Z,75.31
2022-09-24T10:44:53.491Z,75.60
2022-09-24T10:45:53.440Z,76.51
2022-09-24T10:46:53.535Z,76.31
2022-09-24T10:47:53.419Z,76.72
2022-09-24T10:48:53.435Z,76.42
2022-09-24T10:49:53.394Z,76.21
2022-09-24T10:50:53.383Z,76.62
2022-09-24T10:51:53.364Z,75.84
2022-09-24T10:52:53.363Z,76.42
2022-09-24T10:53:53.359Z,76.55
2022-09-24T10:54:53.343Z,76.65
2022-09-24T10:55:53.324Z,76.42
2022-09-24T10:56:53.537Z,76.31
2022-09-24T10:57:53.296Z,76.65
2022-09-24T10:58:53.290Z,76.45
2022-09-24T10:59:53.298Z,76.45
2022-09-24T11:00:53.271Z,76.15
2022-09-24T11:01:53.328Z,76.65
2022-09-24T11:02:53.293Z,76.28
2022-09-24T11:03:53.239Z,76.45
2022-09-24T11:04:53.247Z,76.55
2022-09-24T11:05:53.206Z,77.09
2022-09-24T11:06:53.229Z,77.50
2022-09-24T11:07:53.215Z,78.41
2022-09-24T11:08:53.181Z,77.97
2022-09-24T11:09:53.179Z,77.97
2022-09-24T11:10:53.157Z,77.66
2022-09-24T11:11:53.144Z,77.66
2022-09-24T11:12:53.154Z,77.56
2022-09-24T11:13:53.112Z,77.53
2022-09-24T11:14:53.118Z,76.92
2022-09-24T11:15:53.126Z,76.62
2022-09-24T11:16:53.078Z,76.82
2022-09-24T11:17:53.073Z,76.72
2022-09-24T11:18:53.056Z,77.02
2022-09-24T11:19:53.051Z,76.31
2022-09-24T11:20:53.049Z,76.51
2022-09-24T11:21:53.034Z,76.68
2022-09-24T11:22:53.016Z,76.82
2022-09-24T11:23:52.999Z,76.68
2022-09-24T11:24:52.989Z,76.07
2022-09-24T11:25:52.997Z,76.28
2022-09-24T11:26:52.969Z,76.48
2022-09-24T11:27:52.970Z,76.28
2022-09-24T11:28:52.975Z,75.77
2022-09-24T11:29:52.936Z,75.67
2022-09-24T11:30:52.991Z,75.67
2022-09-24T11:31:52.906Z,76.24
2022-09-24T11:32:52.896Z,76.24
2022-09-24T11:33:52.900Z,75.54
2022-09-24T11:34:52.902Z,76.04
2022-09-24T11:35:52.896Z,75.74
2022-09-24T11:36:52.856Z,75.63
2022-09-24T11:37:52.835Z,76.10
2022-09-24T11:38:52.836Z,75.60
2022-09-24T11:39:52.823Z,74.99
2022-09-24T11:40:52.977Z,76.10
2022-09-24T11:41:52.809Z,75.34
2022-09-24T11:42:52.791Z,74.79
2022-09-24T11:43:52.776Z,74.99
2022-09-24T11:44:52.784Z,74.69
2022-09-24T11:45:52.755Z,74.69
2022-09-24T11:46:52.852Z,74.49
2022-09-24T11:47:52.725Z,74.99
2022-09-24T11:48:52.721Z,74.59
2022-09-24T11:49:52.699Z,75.20
2022-09-24T11:50:52.696Z,74.99
2022-09-24T11:51:52.738Z,74.19
2022-09-24T11:52:52.672Z,75.20
2022-09-24T11:53:52.659Z,74.69
2022-09-24T11:54:52.647Z,73.58
2022-09-24T11:55:52.628Z,72.98
2022-09-24T11:56:52.639Z,73.58
2022-09-24T11:57:52.613Z,73.38
2022-09-24T11:58:52.602Z,73.68
2022-09-24T11:59:52.590Z,72.88
2022-09-24T12:00:53.676Z,72.67
2022-09-24T12:01:52.659Z,72.58
2022-09-24T12:02:52.650Z,72.85
2022-09-24T12:03:52.541Z,73.38
2022-09-24T12:04:52.526Z,74.05
2022-09-24T12:05:52.517Z,72.94
2022-09-24T12:06:52.526Z,73.48
2022-09-24T12:07:52.495Z,73.65
2022-09-24T12:08:52.486Z,73.25
2022-09-24T12:09:52.475Z,72.94
2022-09-24T12:10:52.474Z,73.45
2022-09-24T12:11:52.441Z,73.75
2022-09-24T12:12:52.452Z,73.45
2022-09-24T12:13:52.425Z,72.44
2022-09-24T12:14:52.408Z,72.64
2022-09-24T12:15:52.468Z,72.44
2022-09-24T12:16:52.414Z,72.14
2022-09-24T12:17:52.407Z,72.14
2022-09-24T12:18:52.382Z,72.34
2022-09-24T12:19:52.360Z,71.80
2022-09-24T12:20:52.348Z,71.30
2022-09-24T12:21:52.344Z,71.30
2022-09-24T12:22:52.342Z,71.10
2022-09-24T12:23:52.322Z,71.10
2022-09-24T12:24:52.301Z,71.20
2022-09-24T12:25:52.288Z,70.29
2022-09-24T12:26:52.287Z,70.70
2022-09-24T12:27:52.281Z,70.19
2022-09-24T12:28:52.265Z,69.99
2022-09-24T12:29:52.267Z,69.89
2022-09-24T12:30:52.284Z,70.29
2022-09-24T12:31:52.288Z,71.10
2022-09-24T12:32:52.352Z,70.79
2022-09-24T12:33:52.201Z,70.79
2022-09-24T12:34:52.191Z,70.96
2022-09-24T12:35:52.176Z,70.59
2022-09-24T12:36:56.568Z,70.70
2022-09-24T12:37:53.171Z,70.66
2022-09-24T12:38:52.144Z,70.66
2022-09-24T12:39:52.138Z,70.50
2022-09-24T12:40:52.231Z,70.76
2022-09-24T12:41:52.114Z,70.16
2022-09-24T12:42:52.105Z,70.16
2022-09-24T12:43:52.108Z,69.35
2022-09-24T12:44:52.084Z,70.36
2022-09-24T12:45:52.072Z,69.15
2022-09-24T12:46:52.284Z,69.25
2022-09-24T12:47:52.041Z,69.65
2022-09-24T12:48:52.068Z,69.65
2022-09-24T12:49:52.019Z,69.25
2022-09-24T12:50:52.011Z,68.95
2022-09-24T12:51:52.005Z,68.65